Time;durP1;ratioP1;P1;durP2;ratioP2;P2;SDS_P1;SDS_P2;PMS_P1;PMS_P2;Temp;Humidity;BMP_temperature;BMP_pressure;BME280_temperature;BME280_humidity;BME280_pressure;Samples;Min_cycle;Max_cycle;Signal;HPM_P1;HPM_P2
2022/09/14 00:02:20;;;;;;;5.18;3.30;;;;;;;16.97;80.64;99271.81;4296319;33;34591;-79
2022/09/14 00:05:07;;;;;;;6.73;3.93;;;;;;;16.61;82.62;99266.25;4280657;33;33332;-80
2022/09/14 00:07:53;;;;;;;4.62;3.12;;;;;;;16.30;85.95;99269.06;4299135;33;34604;-80
2022/09/14 00:10:40;;;;;;;7.90;4.10;;;;;;;16.47;85.03;99270.66;4298920;33;34129;-79
2022/09/14 00:13:27;;;;;;;5.45;3.60;;;;;;;16.07;87.82;99274.44;4293149;33;91950;-79
2022/09/14 00:16:17;;;;;;;5.20;3.62;;;;;;;16.63;85.53;99280.53;4296332;33;34229;-79
2022/09/14 00:19:05;;;;;;;5.32;3.47;;;;;;;17.14;80.58;99278.91;4292719;33;34636;-79
2022/09/14 00:21:56;;;;;;;5.17;3.47;;;;;;;17.04;80.95;99272.75;4285866;33;34094;-80
2022/09/14 00:24:42;;;;;;;6.28;3.90;;;;;;;17.23;79.01;99271.19;4283858;33;33701;-79
2022/09/14 00:27:28;;;;;;;6.65;3.58;;;;;;;16.49;83.11;99263.63;4293163;33;33373;-80
2022/09/14 00:30:14;;;;;;;5.15;3.62;;;;;;;16.58;83.41;99258.69;4289520;33;33859;-80
2022/09/14 00:33:01;;;;;;;5.43;3.65;;;;;;;16.68;83.05;99262.03;4294277;33;34199;-79
2022/09/14 00:35:47;;;;;;;7.00;3.60;;;;;;;17.13;79.76;99267.00;4295720;33;33845;-80
2022/09/14 00:38:34;;;;;;;5.40;3.35;;;;;;;17.12;79.17;99267.38;4283750;33;33256;-79
2022/09/14 00:41:26;;;;;;;7.18;4.10;;;;;;;16.89;80.16;99272.84;4288643;33;33717;-80
2022/09/14 00:44:12;;;;;;;5.18;3.55;;;;;;;16.46;82.40;99280.12;4295682;33;35096;-79
2022/09/14 00:47:00;;;;;;;6.05;3.45;;;;;;;16.82;81.30;99270.69;4294927;33;34862;-80
2022/09/14 00:49:46;;;;;;;4.87;3.78;;;;;;;16.97;79.87;99261.56;4284268;33;33470;-79
2022/09/14 00:52:34;;;;;;;6.57;3.90;;;;;;;17.03;78.21;99259.31;4284337;33;33952;-79
2022/09/14 00:55:22;;;;;;;5.75;3.92;;;;;;;16.55;81.10;99253.06;4281209;33;34168;-80
2022/09/14 00:58:08;;;;;;;6.72;3.80;;;;;;;16.10;84.19;99246.09;4282454;33;33738;-79
2022/09/14 01:00:54;;;;;;;6.80;3.70;;;;;;;16.38;82.84;99243.22;4298516;33;34280;-79
2022/09/14 01:03:41;;;;;;;6.70;4.00;;;;;;;16.99;79.25;99241.81;4292436;33;33924;-80
2022/09/14 01:06:45;;;;;;;5.70;3.72;;;;;;;16.50;81.54;99243.09;4295783;33;34147;-80
2022/09/14 01:09:40;;;;;;;6.03;3.90;;;;;;;16.67;80.22;99241.88;4285617;33;34572;-80
2022/09/14 01:12:43;;;;;;;6.80;4.25;;;;;;;16.41;81.85;99239.72;4298346;33;34232;-80
2022/09/14 01:15:51;;;;;;;6.10;4.03;;;;;;;16.18;83.52;99239.56;4284889;33;34632;-79
2022/09/14 01:18:50;;;;;;;5.70;3.60;;;;;;;16.01;85.35;99243.50;4282869;33;35085;-79
2022/09/14 01:21:37;;;;;;;5.20;3.55;;;;;;;16.70;81.04;99235.62;4284585;33;34677;-80
2022/09/14 01:24:45;;;;;;;5.25;3.50;;;;;;;17.00;78.41;99233.16;4284115;33;33369;-80
2022/09/14 01:27:42;;;;;;;6.07;3.80;;;;;;;16.77;80.13;99235.81;4288279;33;33745;-80
2022/09/14 01:30:30;;;;;;;5.32;3.40;;;;;;;16.89;79.05;99237.66;4286561;33;34210;-80
2022/09/14 01:33:26;;;;;;;5.47;3.37;;;;;;;16.67;80.15;99235.56;4276473;33;34375;-80
2022/09/14 01:36:14;;;;;;;5.55;3.60;;;;;;;16.75;79.92;99232.59;4289069;33;34225;-80
2022/09/14 01:39:00;;;;;;;5.90;3.75;;;;;;;16.74;79.18;99224.66;4282999;33;33679;-80
2022/09/14 01:41:48;;;;;;;6.43;3.93;;;;;;;16.37;81.13;99222.25;4285104;33;33053;-80
2022/09/14 01:44:36;;;;;;;6.87;4.10;;;;;;;16.41;81.72;99218.41;4293748;33;34850;-79
2022/09/14 01:47:30;;;;;;;6.62;3.78;;;;;;;16.10;83.53;99207.41;4282669;33;33523;-80
2022/09/14 01:50:21;;;;;;;5.18;3.55;;;;;;;16.22;83.41;99214.78;4293180;33;34741;-80
2022/09/14 01:53:18;;;;;;;7.20;4.00;;;;;;;16.18;83.39;99203.66;4283669;33;34184;-80
2022/09/14 01:56:25;;;;;;;6.50;4.20;;;;;;;16.07;83.71;99197.84;4284216;33;33733;-80
2022/09/14 01:59:16;;;;;;;5.78;3.70;;;;;;;16.19;82.14;99195.00;4284611;33;33343;-80
2022/09/14 02:02:06;;;;;;;5.60;3.78;;;;;;;16.13;82.72;99188.13;4285193;33;33801;-80
2022/09/14 02:05:01;;;;;;;6.75;3.90;;;;;;;16.27;81.83;99184.09;4274714;33;34183;-80
2022/09/14 02:07:47;;;;;;;6.20;3.67;;;;;;;16.13;82.11;99179.84;4282789;33;33721;-80
2022/09/14 02:10:34;;;;;;;5.10;3.67;;;;;;;16.19;81.95;99177.59;4284417;33;34317;-80
2022/09/14 02:13:20;;;;;;;6.17;3.50;;;;;;;16.62;78.75;99176.59;4283563;33;33754;-80
2022/09/14 02:16:07;;;;;;;7.65;4.10;;;;;;;16.43;80.04;99182.09;4293531;33;34111;-80
2022/09/14 02:18:53;;;;;;;7.65;4.07;;;;;;;15.69;83.80;99168.13;4287314;33;33773;-80
2022/09/14 02:21:40;;;;;;;5.57;3.72;;;;;;;15.74;84.26;99156.81;4295072;33;33812;-80
2022/09/14 02:24:27;;;;;;;6.00;3.70;;;;;;;16.05;83.13;99155.16;4291824;33;33824;-79
2022/09/14 02:27:14;;;;;;;6.45;3.87;;;;;;;16.28;81.54;99166.34;4271269;33;35046;-80
2022/09/14 02:29:59;;;;;;;6.72;4.10;;;;;;;16.12;81.20;99153.38;4280423;33;33763;-80
2022/09/14 02:33:07;;;;;;;6.35;4.10;;;;;;;16.05;81.96;99153.22;4280749;33;33221;-80
2022/09/14 02:35:54;;;;;;;8.27;4.07;;;;;;;15.71;84.26;99152.81;4296752;33;33562;-80
2022/09/14 02:39:05;;;;;;;;;;;;;;;16.13;82.03;99152.19;4284223;33;36040;-80
2022/09/14 02:42:10;;;;;;;;;;;;;;;15.36;86.19;99155.41;4286501;33;35115;-80
2022/09/14 02:44:59;;;;;;;;;;;;;;;15.56;85.48;99155.53;4294700;33;34407;-80
2022/09/14 02:48:03;;;;;;;;;;;;;;;16.23;80.83;99153.63;4284521;33;35741;-80
2022/09/14 02:50:49;;;;;;;;;;;;;;;16.00;81.77;99150.72;4295068;33;36179;-80
2022/09/14 02:53:52;;;;;;;;;;;;;;;15.60;85.12;99151.72;4294616;33;35096;-80
2022/09/14 02:56:38;;;;;;;;;;;;;;;15.55;85.70;99145.66;4288940;33;34146;-80
2022/09/14 02:59:24;;;;;;;;;;;;;;;15.64;86.05;99147.06;4298098;33;35761;-80
2022/09/14 03:02:10;;;;;;;;;;;;;;;15.77;85.99;99145.06;4284719;33;35302;-80
2022/09/14 03:04:57;;;;;;;;;;;;;;;16.04;84.10;99126.72;4281785;33;34879;-80
2022/09/14 03:07:43;;;;;;;;;;;;;;;16.06;84.16;99126.38;4294770;33;33250;-80
2022/09/14 03:10:30;;;;;;;;;;;;;;;16.00;85.01;99131.38;4293918;33;34973;-80
2022/09/14 03:13:16;;;;;;;;;;;;;;;16.06;84.80;99123.63;4297584;33;35391;-80
2022/09/14 03:16:06;;;;;;;;;;;;;;;15.12;90.77;99137.06;4296346;33;34953;-80
2022/09/14 03:18:52;;;;;;;;;;;;;;;14.78;95.21;99131.03;4284152;33;35010;-80
2022/09/14 03:21:39;;;;;;;;;;;;;;;15.25;92.48;99130.31;4293903;33;35504;-80
2022/09/14 03:24:24;;;;;;;;;;;;;;;15.81;88.93;99128.56;4291561;33;36071;-80
2022/09/14 03:27:10;;;;;;;;;;;;;;;15.86;88.34;99125.53;4294813;33;35392;-80
2022/09/14 03:29:56;;;;;;;;;;;;;;;14.87;94.45;99124.53;4295488;33;33198;-80
2022/09/14 03:32:42;;;;;;;;;;;;;;;14.77;97.66;99118.38;4288092;33;34833;-80
2022/09/14 03:35:30;;;;;;;;;;;;;;;15.36;94.50;99119.53;4287169;33;35240;-80
2022/09/14 03:38:15;;;;;;;;;;;;;;;15.88;90.12;99112.13;4283120;33;35165;-80
2022/09/14 03:41:06;;;;;;;;;;;;;;;15.98;89.60;99116.31;4291278;33;34310;-80
2022/09/14 03:43:52;;;;;;;;;;;;;;;16.09;88.08;99125.66;4295644;33;34959;-80
2022/09/14 03:46:38;;;;;;;;;;;;;;;15.68;90.67;99136.12;4284717;33;36143;-80
2022/09/14 03:49:24;;;;;;;;;;;;;;;15.99;89.98;99129.75;4294012;33;34969;-80
2022/09/14 03:52:10;;;;;;;;;;;;;;;15.73;90.99;99125.63;4285890;33;34148;-81
2022/09/14 03:54:56;;;;;;;;;;;;;;;16.13;89.59;99132.84;4296190;33;35868;-80
2022/09/14 03:57:43;;;;;;;;;;;;;;;16.38;87.10;99136.19;4293348;33;36200;-81
2022/09/14 04:00:28;;;;;;;;;;;;;;;16.10;88.34;99135.53;4295005;33;34660;-80
2022/09/14 04:03:15;;;;;;;;;;;;;;;15.85;90.71;99133.03;4284570;33;34066;-81
2022/09/14 04:06:04;;;;;;;;;;;;;;;16.00;89.80;99131.38;4298761;33;34751;-80
2022/09/14 04:08:50;;;;;;;;;;;;;;;15.42;92.62;99123.63;4283320;33;36012;-80
2022/09/14 04:11:36;;;;;;;;;;;;;;;15.12;96.54;99134.31;4283366;33;34908;-80
2022/09/14 04:14:22;;;;;;;;;;;;;;;16.06;89.78;99134.69;4294497;33;34096;-81
2022/09/14 04:17:08;;;;;;;;;;;;;;;16.13;88.78;99130.09;4284541;33;34841;-80
2022/09/14 04:19:54;;;;;;;;;;;;;;;16.03;89.63;99124.34;4291945;33;36343;-80
2022/09/14 04:22:40;;;;;;;;;;;;;;;15.61;91.66;99111.88;4284392;33;35799;-80
2022/09/14 04:25:26;;;;;;;;;;;;;;;16.04;90.36;99101.06;4297969;33;34103;-80
2022/09/14 04:28:12;;;;;;;;;;;;;;;16.05;90.41;99100.72;4284009;33;33704;-80
2022/09/14 04:31:05;;;;;;;;;;;;;;;16.00;90.81;99106.53;4295132;33;36181;-81
2022/09/14 04:33:54;;;;;;;;;;;;;;;16.15;89.68;99104.88;4294535;33;35920;-81
2022/09/14 04:36:40;;;;;;;;;;;;;;;15.89;91.78;99103.50;4292869;33;34371;-80
2022/09/14 04:39:26;;;;;;;;;;;;;;;16.32;89.14;99109.97;4281722;33;35739;-84
2022/09/14 04:42:13;;;;;;;;;;;;;;;16.28;89.66;99113.81;4292630;33;36159;-85
2022/09/14 04:44:59;;;;;;;5.75;4.07;;;;;;;16.13;90.35;99098.91;4296291;33;35366;-86
2022/09/14 04:47:45;;;;;;;5.37;3.30;;;;;;;15.67;93.28;99085.59;4293015;33;35781;-85
2022/09/14 04:50:31;;;;;;;6.57;3.25;;;;;;;16.35;89.76;99089.91;4292025;33;34706;-85
2022/09/14 04:53:20;;;;;;;8.77;4.10;;;;;;;16.58;87.79;99084.44;4290932;33;34987;-84
2022/09/14 04:56:08;;;;;;;9.35;4.10;;;;;;;16.59;88.00;99079.72;4291692;33;35266;-86
2022/09/14 04:59:00;;;;;;;7.05;3.62;;;;;;;16.47;89.04;99083.44;4279960;33;35258;-86
2022/09/14 05:01:48;;;;;;;7.40;3.72;;;;;;;16.19;90.37;99081.69;4281487;33;34609;-85
2022/09/14 05:04:34;;;;;;;11.10;3.80;;;;;;;16.02;91.90;99082.06;4293820;33;35024;-86
2022/09/14 05:07:20;;;;;;;8.73;4.10;;;;;;;16.51;89.70;99083.53;4292375;33;35610;-86
2022/09/14 05:10:07;;;;;;;11.40;4.25;;;;;;;16.14;91.13;99084.72;4291432;33;34192;-86
2022/09/14 05:12:53;;;;;;;11.27;4.03;;;;;;;15.98;92.85;99095.03;4275043;33;34552;-82
2022/09/14 05:15:41;;;;;;;12.15;4.50;;;;;;;15.66;93.40;99095.06;4290515;33;33958;-81
2022/09/14 05:18:27;;;;;;;8.00;4.20;;;;;;;16.08;93.58;99105.53;4283653;33;34185;-81
2022/09/14 05:21:16;;;;;;;7.15;3.87;;;;;;;16.19;92.38;99109.31;4286810;33;33917;-81
2022/09/14 05:24:07;;;;;;;8.02;4.15;;;;;;;16.36;91.44;99099.00;4281657;33;34180;-85
2022/09/14 05:26:53;;;;;;;12.90;3.92;;;;;;;16.21;92.35;99102.63;4279018;33;34530;-86
2022/09/14 05:29:45;;;;;;;7.47;4.22;;;;;;;16.63;90.57;99086.91;4284136;33;34900;-85
2022/09/14 05:32:31;;;;;;;9.02;4.12;;;;;;;16.99;88.53;99075.75;4293171;33;34458;-84
2022/09/14 05:35:18;;;;;;;8.55;3.70;;;;;;;17.08;87.70;99071.59;4296675;33;34727;-83
2022/09/14 05:38:04;;;;;;;9.43;4.00;;;;;;;17.21;86.43;99068.63;4293141;33;34898;-84
2022/09/14 05:40:53;;;;;;;7.97;4.10;;;;;;;16.85;87.83;99081.84;4292348;33;35203;-85
2022/09/14 05:43:41;;;;;;;8.60;3.75;;;;;;;17.15;84.43;99090.28;4279976;33;34017;-85
2022/09/14 05:46:27;;;;;;;11.98;3.80;;;;;;;17.15;84.05;99072.88;4294134;33;36943;-85
2022/09/14 05:49:13;;;;;;;8.10;3.62;;;;;;;17.24;82.71;99071.47;4293351;33;36533;-85
2022/09/14 05:51:59;;;;;;;10.88;3.80;;;;;;;17.33;81.77;99073.19;4294235;33;34432;-85
2022/09/14 05:54:46;;;;;;;8.05;3.12;;;;;;;16.87;85.62;99093.31;4292676;33;34195;-85
2022/09/14 05:57:32;;;;;;;8.10;3.58;;;;;;;16.85;84.50;99099.25;4284133;33;34581;-87
2022/09/14 06:00:20;;;;;;;6.80;3.47;;;;;;;17.28;83.01;99086.19;4292412;33;34983;-87
2022/09/14 06:03:06;;;;;;;13.52;3.85;;;;;;;17.72;79.07;99080.16;4294083;33;34652;-87
2022/09/14 06:05:56;;;;;;;11.10;3.90;;;;;;;17.52;79.36;99082.22;4272309;33;33751;-86
2022/09/14 06:08:43;;;;;;;9.93;3.62;;;;;;;17.36;79.27;99078.81;4276295;33;34378;-90
2022/09/14 06:11:32;;;;;;;7.70;3.55;;;;;;;17.58;77.92;99068.06;4290580;33;35053;-87
2022/09/14 06:14:19;;;;;;;7.25;3.37;;;;;;;17.48;77.21;99067.53;4269855;33;34273;-87
2022/09/14 06:17:05;;;;;;;8.13;3.58;;;;;;;17.63;77.29;99059.44;4284879;33;34171;-87
2022/09/14 06:19:52;;;;;;;12.07;3.83;;;;;;;17.91;76.28;99057.13;4292479;33;34422;-88
2022/09/14 06:22:38;;;;;;;10.88;3.70;;;;;;;17.76;76.48;99064.41;4291098;33;34663;-85
2022/09/14 06:25:24;;;;;;;8.68;3.45;;;;;;;17.31;79.25;99070.81;4286989;33;35714;-85
2022/09/14 06:28:10;;;;;;;8.05;3.37;;;;;;;18.27;74.19;99074.25;4290037;33;33234;-91
2022/09/14 06:30:57;;;;;;;9.32;3.78;;;;;;;18.03;75.40;99069.94;4292455;33;34711;-92
2022/09/14 06:33:44;;;;;;;9.07;4.25;;;;;;;18.48;72.25;99072.91;4291059;33;35919;-92
2022/09/14 06:36:31;;;;;;;8.02;4.05;;;;;;;18.66;72.28;99073.91;4278642;33;34842;-91
2022/09/14 06:39:16;;;;;;;8.02;4.10;;;;;;;18.18;74.19;99090.34;4278956;33;34213;-90
2022/09/14 06:42:03;;;;;;;9.07;3.87;;;;;;;17.94;76.81;99106.25;4292106;33;35578;-92
2022/09/14 06:44:49;;;;;;;7.95;4.10;;;;;;;18.23;74.67;99106.66;4284784;33;34553;-92
2022/09/14 06:47:36;;;;;;;10.00;4.05;;;;;;;17.50;76.34;99106.75;4292291;33;33704;-91
2022/09/14 06:50:22;;;;;;;10.00;3.97;;;;;;;18.11;74.68;99113.22;4287572;33;35139;-81
2022/09/14 06:53:08;;;;;;;8.45;4.25;;;;;;;18.14;75.92;99108.91;4291022;33;34561;-82
2022/09/14 06:55:57;;;;;;;13.60;4.87;;;;;;;17.97;75.22;99119.38;4290138;33;35033;-82
2022/09/14 06:58:44;;;;;;;9.80;4.07;;;;;;;18.02;77.66;99098.06;4284477;33;34799;-80
2022/09/14 07:01:30;;;;;;;9.65;4.40;;;;;;;18.67;75.09;99092.19;4287761;33;33750;-79
2022/09/14 07:04:17;;;;;;;9.68;4.62;;;;;;;18.85;78.45;99082.09;4294832;33;34359;-79
2022/09/14 07:07:02;;;;;;;12.13;5.22;;;;;;;18.31;84.05;99077.84;4282992;33;34887;-78
2022/09/14 07:09:49;;;;;;;7.80;4.93;;;;;;;18.41;84.86;99074.44;4283699;33;34682;-79
2022/09/14 07:12:35;;;;;;;10.15;4.95;;;;;;;18.90;83.08;99061.53;4282347;33;34098;-84
2022/09/14 07:15:21;;;;;;;13.43;4.90;;;;;;;18.70;84.40;99074.75;4281375;33;35354;-80
2022/09/14 07:18:07;;;;;;;10.93;4.97;;;;;;;18.72;84.87;99094.59;4286248;33;34896;-79
2022/09/14 07:20:54;;;;;;;8.60;4.82;;;;;;;18.72;84.89;99102.91;4272899;33;35414;-83
2022/09/14 07:23:42;;;;;;;9.00;5.22;;;;;;;19.01;82.81;99098.53;4292836;33;34281;-84
2022/09/14 07:26:31;;;;;;;10.40;4.85;;;;;;;19.10;82.11;99099.00;4288773;33;35321;-83
2022/09/14 07:29:18;;;;;;;7.87;4.60;;;;;;;19.25;82.36;99097.16;4272976;33;35993;-81
2022/09/14 07:32:04;;;;;;;10.25;4.90;;;;;;;18.94;84.47;99092.09;4281703;33;34711;-88
2022/09/14 07:34:51;;;;;;;9.82;5.60;;;;;;;19.00;85.03;99091.38;4289102;33;34798;-88
2022/09/14 07:37:37;;;;;;;11.30;5.72;;;;;;;18.92;86.48;99094.44;4284222;33;36147;-86
2022/09/14 07:40:24;;;;;;;10.70;6.07;;;;;;;18.93;87.81;99096.06;4287911;33;36014;-86
2022/09/14 07:43:11;;;;;;;10.45;5.65;;;;;;;18.86;88.19;99091.22;4287355;33;34750;-86
2022/09/14 07:46:00;;;;;;;12.30;4.85;;;;;;;19.44;82.09;99081.44;4295720;33;34979;-82
2022/09/14 07:48:48;;;;;;;9.70;5.40;;;;;;;19.15;83.37;99081.19;4281485;33;34414;-81
2022/09/14 07:51:35;;;;;;;9.80;5.28;;;;;;;19.23;83.49;99077.31;4276732;33;34539;-91
2022/09/14 07:54:21;;;;;;;13.55;6.03;;;;;;;19.36;80.61;99083.38;4292499;33;34388;-89
2022/09/14 07:57:08;;;;;;;12.52;5.22;;;;;;;19.03;82.53;99073.94;4285464;33;34075;-86
2022/09/14 07:59:57;;;;;;;10.02;5.00;;;;;;;18.83;84.35;99081.66;4287286;33;37072;-86
2022/09/14 08:02:43;;;;;;;9.27;5.22;;;;;;;18.93;84.83;99071.06;4295657;33;34915;-83
2022/09/14 08:05:30;;;;;;;7.80;5.00;;;;;;;18.80;85.75;99057.44;4283288;33;33336;-84
2022/09/14 08:08:15;;;;;;;10.13;5.25;;;;;;;18.74;84.20;99044.31;4283063;33;33801;-83
2022/09/14 08:11:06;;;;;;;8.88;4.65;;;;;;;19.06;81.56;99034.31;4293640;33;35668;-83
2022/09/14 08:13:54;;;;;;;7.72;4.50;;;;;;;19.16;80.07;99049.47;4286084;33;34599;-88
2022/09/14 08:16:40;;;;;;;9.45;4.72;;;;;;;19.26;81.28;99054.31;4286347;33;35686;-86
2022/09/14 08:19:26;;;;;;;7.32;4.75;;;;;;;19.22;82.11;99052.72;4289733;33;35110;-85
2022/09/14 08:22:12;;;;;;;11.25;5.28;;;;;;;19.08;83.39;99053.38;4272689;33;36114;-87
2022/09/14 08:24:58;;;;;;;11.68;5.07;;;;;;;19.41;82.27;99057.22;4282134;33;34555;-89
2022/09/14 08:27:44;;;;;;;11.00;5.35;;;;;;;19.60;82.08;99045.84;4293003;33;34652;-86
2022/09/14 08:30:30;;;;;;;12.10;5.70;;;;;;;19.47;84.33;99044.59;4285736;33;34264;-87
2022/09/14 08:33:15;;;;;;;10.85;5.30;;;;;;;19.78;81.79;99037.69;4284195;33;34762;-91
2022/09/14 08:36:02;;;;;;;11.27;5.57;;;;;;;19.81;82.34;99023.00;4283739;33;34711;-88
2022/09/14 08:38:48;;;;;;;13.13;5.22;;;;;;;19.76;83.74;99026.16;4279518;33;34271;-89
2022/09/14 08:41:37;;;;;;;9.90;5.35;;;;;;;20.03;82.13;99035.03;4276140;33;33718;-87
2022/09/14 08:44:29;;;;;;;13.50;6.00;;;;;;;20.34;80.00;99047.50;4285209;33;34610;-89
2022/09/14 08:47:20;;;;;;;11.35;6.03;;;;;;;20.30;79.97;99048.69;4292292;33;34969;-89
2022/09/14 08:50:10;;;;;;;11.85;5.72;;;;;;;20.24;80.76;99039.13;4271848;33;36453;-92
2022/09/14 08:52:58;;;;;;;12.85;5.00;;;;;;;20.54;77.99;99048.00;4299638;33;35035;-92
2022/09/14 08:55:48;;;;;;;11.18;6.03;;;;;;;20.46;79.55;99040.78;4284415;33;34658;-89
2022/09/14 08:58:55;;;;;;;10.55;5.97;;;;;;;20.62;78.10;99032.94;4293976;33;34959;-87
2022/09/14 09:02:02;;;;;;;8.43;5.70;;;;;;;21.33;73.11;99032.22;4276037;33;34385;-91
2022/09/14 09:04:52;;;;;;;10.45;5.87;;;;;;;20.99;77.48;99034.59;4284390;33;33780;-90
2022/09/14 09:07:55;;;;;;;15.55;5.93;;;;;;;21.00;76.55;99036.19;4276435;33;34204;-84
2022/09/14 09:10:41;;;;;;;12.18;5.28;;;;;;;21.23;75.47;99026.66;4296341;33;34557;-92
2022/09/14 09:13:30;;;;;;;13.73;6.05;;;;;;;20.99;76.87;99029.03;4284324;33;35677;-93
2022/09/14 09:16:20;;;;;;;10.15;5.22;;;;;;;21.05;77.09;99033.00;4297126;33;34457;-86
2022/09/14 09:19:11;;;;;;;10.15;5.35;;;;;;;21.61;73.67;99036.22;4266231;33;35161;-85
2022/09/14 09:21:58;;;;;;;10.95;5.53;;;;;;;21.07;75.28;99046.56;4282428;33;35549;-84
2022/09/14 09:24:49;;;;;;;12.52;5.70;;;;;;;21.70;73.18;99049.75;4282900;33;34350;-91
2022/09/14 09:27:35;;;;;;;9.32;5.12;;;;;;;21.96;73.29;99054.88;4285300;33;34182;-87
2022/09/14 09:30:21;;;;;;;10.18;5.18;;;;;;;21.70;73.60;99066.50;4291746;33;34649;-88
2022/09/14 09:33:12;;;;;;;;;;;;;;;21.63;73.15;99066.47;4277480;33;35666;-84
2022/09/14 09:35:58;;;;;;;;;;;;;;;22.02;73.00;99061.63;4275017;33;35674;-84
2022/09/14 09:38:45;;;;;;;9.30;4.75;;;;;;;22.02;73.64;99067.22;4287050;33;34796;-83
2022/09/14 09:41:35;;;;;;;;;;;;;;;22.68;68.72;99071.41;4299364;33;35111;-85
2022/09/14 09:44:22;;;;;;;;;;;;;;;19.77;83.18;99066.66;4284881;33;35195;-92
2022/09/14 09:47:07;;;;;;;;;;;;;;;21.42;75.08;99067.28;4289892;33;34666;-93
2022/09/14 09:49:59;;;;;;;13.15;5.00;;;;;;;20.89;76.71;99063.25;4293538;33;32523;-92
2022/09/14 09:52:58;;;;;;;;;;;;;;;22.13;71.73;99058.03;4284014;33;34275;-93
2022/09/14 09:55:51;;;;;;;;;;;;;;;22.77;69.00;99059.78;4284342;33;34773;-93
2022/09/14 09:58:37;;;;;;;;;;;;;;;22.97;66.81;99058.13;4281437;33;35076;-93
2022/09/14 10:01:27;;;;;;;;;;;;;;;23.02;68.13;99066.03;4267323;33;34137;-93
2022/09/14 10:04:18;;;;;;;;;;;;;;;23.08;66.20;99063.63;4283167;33;35037;-93
2022/09/14 10:07:05;;;;;;;;;;;;;;;22.10;70.52;99068.00;4283565;33;36087;-93
2022/09/14 10:09:58;;;;;;;;;;;;;;;21.29;74.66;99081.59;4298238;33;35334;-93
2022/09/14 10:12:46;;;;;;;;;;;;;;;22.23;70.23;99082.38;4288717;33;34335;-93
2022/09/14 10:15:33;;;;;;;8.20;5.15;;;;;;;22.84;70.30;99082.09;4291202;33;34864;-94
2022/09/14 10:18:19;;;;;;;;;;;;;;;22.52;70.89;99085.84;4297867;33;36062;-94
2022/09/14 10:21:06;;;;;;;;;;;;;;;22.99;68.51;99071.66;4278764;33;34983;-93
2022/09/14 10:24:11;;;;;;;;;;;;;;;23.33;67.43;99077.41;4287754;33;34391;-93
2022/09/14 10:26:57;;;;;;;;;;;;;;;23.28;66.97;99067.47;4294340;33;35756;-93
2022/09/14 10:29:43;;;;;;;;;;;;;;;23.09;67.97;99048.47;4302183;33;35192;-93
2022/09/14 10:32:31;;;;;;;10.57;5.22;;;;;;;23.53;67.43;99042.09;4294655;33;35161;-94
2022/09/14 10:35:18;;;;;;;9.68;4.57;;;;;;;23.32;67.65;99039.50;4279146;33;34165;-93
2022/09/14 10:38:05;;;;;;;;;;;;;;;23.57;67.54;99040.09;4282648;33;35684;-94
2022/09/14 10:40:53;;;;;;;;;;;;;;;23.54;66.64;99049.31;4287181;33;35185;-95
2022/09/14 10:43:50;;;;;;;;;;;;;;;23.68;65.06;99044.75;4281040;33;34994;-94
2022/09/14 10:46:44;;;;;;;;;;;;;;;23.97;64.21;99042.53;4286036;33;34926;-93
2022/09/14 10:49:36;;;;;;;;;;;;;;;23.69;66.28;99049.16;4287680;33;34967;-93
2022/09/14 10:52:32;;;;;;;;;;;;;;;24.13;66.45;99053.12;4290642;33;36424;-87
2022/09/14 10:55:34;;;;;;;;;;;;;;;24.30;64.72;99052.12;4277305;33;35015;-87
2022/09/14 10:58:35;;;;;;;;;;;;;;;23.44;68.30;99049.38;4284871;33;35062;-85
2022/09/14 11:01:21;;;;;;;;;;;;;;;23.90;66.92;99056.56;4288266;33;34362;-92
2022/09/14 11:04:28;;;;;;;;;;;;;;;24.11;65.65;99064.75;4287961;33;34840;-90
2022/09/14 11:07:17;;;;;;;;;;;;;;;24.12;65.81;99057.16;4287981;33;35911;-89
2022/09/14 11:10:07;;;;;;;;;;;;;;;23.85;65.69;99048.63;4275737;33;34497;-89
2022/09/14 11:12:56;;;;;;;;;;;;;;;24.10;65.85;99046.34;4279031;33;34940;-82
2022/09/14 11:16:01;;;;;;;;;;;;;;;23.46;69.05;99046.97;4295626;33;34887;-82
2022/09/14 11:18:48;;;;;;;;;;;;;;;23.18;71.12;99037.59;4292265;33;35363;-84
2022/09/14 11:21:49;;;;;;;;;;;;;;;24.22;67.25;99034.66;4294377;33;35083;-84
2022/09/14 11:24:34;;;;;;;;;;;;;;;24.31;65.78;99024.94;4283600;33;35681;-87
2022/09/14 11:27:28;;;;;;;;;;;;;;;24.33;67.03;99033.69;4275756;33;34637;-89
2022/09/14 11:30:18;;;;;;;;;;;;;;;24.26;65.63;99031.00;4283421;33;35826;-88
2022/09/14 11:33:10;;;;;;;;;;;;;;;24.02;67.88;99036.44;4284734;33;34181;-90
2022/09/14 11:35:58;;;;;;;;;;;;;;;24.09;67.82;99041.19;4290047;33;34960;-84
2022/09/14 11:39:19;;;;;;;;;;;;;;;24.54;65.49;99033.47;4276310;33;35148;-83
2022/09/14 11:42:07;;;;;;;;;;;;;;;24.27;66.07;99021.38;4240337;33;35238;-83
2022/09/14 11:45:04;;;;;;;;;;;;;;;24.35;67.29;99009.69;4279467;33;34010;-81
2022/09/14 11:47:56;;;;;;;;;;;;;;;24.22;67.12;99001.06;4280814;33;35849;-82
2022/09/14 11:50:42;;;;;;;;;;;;;;;24.38;65.60;99008.84;4290331;33;35282;-87
2022/09/14 11:53:28;;;;;;;;;;;;;;;24.90;63.12;99016.16;4276465;33;33109;-88
2022/09/14 11:56:25;;;;;;;;;;;;;;;24.75;65.69;99023.19;4276066;33;34977;-89
2022/09/14 11:59:31;;;;;;;9.10;4.68;;;;;;;24.28;65.43;99017.37;4294323;33;35029;-84
2022/09/14 12:02:23;;;;;;;;;;;;;;;24.69;65.02;99015.25;4296713;33;35601;-84
2022/09/14 12:05:09;;;;;;;;;;;;;;;25.03;62.63;99013.56;4288573;33;35247;-83
2022/09/14 12:08:00;;;;;;;8.68;4.35;;;;;;;24.87;64.46;99011.41;4291388;33;34866;-81
2022/09/14 12:11:08;;;;;;;7.50;4.90;;;;;;;24.67;63.81;99009.28;4289251;33;33476;-83
2022/09/14 12:14:29;;;;;;;9.68;4.82;;;;;;;24.59;65.25;99010.59;4287835;33;35943;-83
2022/09/14 12:17:22;;;;;;;8.60;4.20;;;;;;;24.77;64.91;99001.16;4277562;33;34713;-82
2022/09/14 12:20:37;;;;;;;9.77;4.82;;;;;;;25.64;60.32;98990.13;4292540;33;33846;-83
2022/09/14 12:23:36;;;;;;;6.43;4.30;;;;;;;24.36;63.67;98993.66;4291846;33;35682;-82
2022/09/14 12:26:22;;;;;;;7.75;3.90;;;;;;;23.27;68.10;98992.41;4292385;33;35970;-84
2022/09/14 12:29:30;;;;;;;9.50;4.07;;;;;;;24.46;64.30;98987.97;4290935;33;34273;-80
2022/09/14 12:32:40;;;;;;;8.30;3.55;;;;;;;24.76;64.08;98989.16;4277561;33;33763;-82
2022/09/14 12:35:38;;;;;;;6.72;3.60;;;;;;;25.63;60.01;98983.72;4270967;33;36328;-82
2022/09/14 12:38:30;;;;;;;7.80;3.65;;;;;;;26.22;58.11;98968.97;4282295;33;35020;-82
2022/09/14 12:41:16;;;;;;;8.20;3.33;;;;;;;25.82;57.91;98962.53;4279092;33;34688;-79
2022/09/14 12:44:04;;;;;;;4.75;2.95;;;;;;;26.18;58.76;98954.22;4286468;33;33801;-82
2022/09/14 12:46:50;;;;;;;4.87;2.83;;;;;;;26.35;58.66;98948.63;4293673;33;35130;-81
2022/09/14 12:49:37;;;;;;;6.28;3.12;;;;;;;26.42;55.48;98954.09;4281559;33;33742;-82
2022/09/14 12:52:37;;;;;;;5.78;3.78;;;;;;;26.21;58.20;98944.13;4288199;33;34767;-81
2022/09/14 12:55:35;;;;;;;6.35;3.30;;;;;;;26.65;54.40;98927.94;4290833;33;34144;-83
2022/09/14 12:58:25;;;;;;;4.12;3.00;;;;;;;25.62;58.20;98926.06;4290597;33;34739;-84
2022/09/14 13:01:26;;;;;;;8.95;2.92;;;;;;;26.00;58.42;98918.09;4284780;33;35949;-81
2022/09/14 13:04:23;;;;;;;6.55;2.85;;;;;;;26.52;59.31;98912.97;4297116;33;34900;-83
2022/09/14 13:07:18;;;;;;;9.38;3.42;;;;;;;26.99;55.44;98907.03;4273588;33;34336;-82
2022/09/14 13:10:05;;;;;;;8.95;3.75;;;;;;;25.45;58.83;98916.75;4285785;33;35482;-81
2022/09/14 13:12:51;;;;;;;5.00;3.25;;;;;;;25.57;61.28;98901.31;4293362;33;35071;-80
2022/09/14 13:15:57;;;;;;;5.32;2.87;;;;;;;26.23;57.67;98903.16;4283167;33;35155;-79
2022/09/14 13:18:44;;;;;;;;;;;;;;;25.75;58.00;98912.16;4296440;33;34069;-81
2022/09/14 13:21:30;;;;;;;;;;;;;;;24.77;61.30;98915.09;4291946;33;35840;-81
2022/09/14 13:24:37;;;;;;;;;;;;;;;24.22;64.04;98924.69;4286119;33;36187;-82
2022/09/14 13:27:34;;;;;;;;;;;;;;;24.62;62.89;98917.34;4291684;33;35725;-82
2022/09/14 13:30:20;;;;;;;;;;;;;;;25.96;57.44;98908.97;4280210;33;34919;-81
2022/09/14 13:33:15;;;;;;;5.72;2.10;;;;;;;26.16;56.82;98913.78;4281872;33;35780;-83
2022/09/14 13:36:03;;;;;;;4.97;2.80;;;;;;;25.42;59.51;98917.63;4269755;33;34047;-86
2022/09/14 13:38:50;;;;;;;5.55;2.60;;;;;;;26.28;56.41;98915.12;4269467;33;34840;-89
2022/09/14 13:41:41;;;;;;;4.37;2.47;;;;;;;25.75;57.50;98929.78;4294100;33;35007;-86
2022/09/14 13:44:34;;;;;;;5.45;2.70;;;;;;;25.18;59.76;98922.44;4267384;33;33959;-84